Mari Lampton — WDE3648 — position and weather

sailwx.info

Track history (hours):
 
Tides and Currents Weather Stations Pressure Air Temp Water Temp Dewpoint Dewpoint Depression Visibility Wind Speed Wind Dir Waves Ship Positions

Mari Lampton

Owner: MAgnolia Marine Transport Company, Vicksburg, MS. More information available from US FCC via Universal Licensing System and Coast Guard Vessel Documentation Center.

Last reported at 2015-May-23 13:33 UTC. Time now 2015-May-30 18:37 UTC.
Position N 30°41' W 091°21'.

Length 34 m.

Type: Towing. MMSI: 367342210.

Date/timePositionNaut miles runAvg speedWind from/ knotsBaromVisibWave heightAir tempDewpointWater temp
2015-May-23 13:33N 30°41' W 091°21'4 4.5
2015-May-23 12:32N 30°38' W 091°18'3 3.3
2015-May-23 11:33N 30°34' W 091°17'3 3.1
2015-May-23 10:33N 30°32' W 091°15'1 1.2
2015-May-23 09:33N 30°31' W 091°15'1 0.5
2015-May-23 08:33N 30°31' W 091°14'1 1.0
2015-May-23 07:33N 30°31' W 091°13'5 4.8
2015-May-23 06:33N 30°27' W 091°12'1 0.8
2015-May-23 05:33N 30°26' W 091°12'1 0.9
2015-May-23 04:33N 30°26' W 091°13'0 0.1
2015-May-23 03:32N 30°26' W 091°13'0 0.3
2015-May-23 02:32N 30°26' W 091°14'4 3.2
2015-May-23 01:22N 30°25' W 091°18'  
2015-May-18 22:19N 29°29' W 094°52'6 7.6
2015-May-18 21:33N 29°34' W 094°55'7 7.1
2015-May-18 20:33N 29°40' W 094°59'4 3.7
2015-May-18 19:25N 29°44' W 095°01'0 0.0
2015-May-18 18:25N 29°44' W 095°01'0 0.2
2015-May-18 17:33N 29°44' W 095°01'0 0.0
2015-May-18 05:13N 29°44' W 095°01'0 0.0
2015-May-18 01:14N 29°44' W 095°01'0 0.1
2015-May-18 00:33N 29°44' W 095°01'0 0.1
2015-May-17 23:33N 29°44' W 095°01'0 0.0
2015-May-17 22:33N 29°44' W 095°01'0 0.0
2015-May-17 21:33N 29°44' W 095°01'0 0.0
2015-May-17 19:32N 29°44' W 095°01'0 0.1
2015-May-17 18:33N 29°44' W 095°01'0 0.0
2015-May-17 17:06N 29°44' W 095°01'0 0.0
2015-May-17 16:11N 29°44' W 095°01'0 0.0
2015-May-17 15:33N 29°44' W 095°01'0 0.0
2015-May-17 14:33N 29°44' W 095°01'0 0.0
2015-May-17 13:30N 29°44' W 095°01'0 0.0
2015-May-17 12:33N 29°44' W 095°01'0 0.0
2015-May-17 11:33N 29°44' W 095°01'0 0.0
2015-May-17 10:32N 29°44' W 095°01'0 0.0
2015-May-17 09:33N 29°44' W 095°01'0 0.0
2015-May-17 08:31N 29°44' W 095°01'0 0.0
2015-May-17 07:33N 29°44' W 095°01'0 0.0
2015-May-17 06:33N 29°44' W 095°01'0 0.1
2015-May-17 05:33N 29°44' W 095°01'0 0.1
2015-May-17 04:33N 29°44' W 095°01'0 0.0
2015-May-17 03:33N 29°44' W 095°01'0 0.0
2015-May-17 02:33N 29°44' W 095°01'0 0.1
2015-May-17 01:33N 29°44' W 095°01'0 0.0
2015-May-17 00:33N 29°44' W 095°01'0 0.1
2015-May-16 23:23N 29°44' W 095°01'0 0.0
2015-May-16 22:25N 29°44' W 095°01'0 0.0
2015-May-16 21:32N 29°44' W 095°01'0 0.0
2015-May-16 19:32N 29°44' W 095°01'0 0.0
2015-May-16 18:33N 29°44' W 095°01'0 0.1
2015-May-16 17:32N 29°44' W 095°01'0 0.1
2015-May-16 16:32N 29°44' W 095°01'0 0.0
2015-May-16 15:30N 29°44' W 095°01'0 0.0
2015-May-16 14:33N 29°44' W 095°01'0 0.0
2015-May-16 13:33N 29°44' W 095°01'0 0.0
2015-May-16 12:33N 29°44' W 095°01'0 0.0
2015-May-16 11:33N 29°44' W 095°01'0 0.0
2015-May-16 10:33N 29°44' W 095°01'0 0.0
2015-May-16 09:33N 29°44' W 095°01'0 0.0
2015-May-16 08:33N 29°44' W 095°01'0 0.0
2015-May-16 07:33N 29°44' W 095°01'0 0.0
2015-May-16 06:32N 29°44' W 095°01'0 0.0
2015-May-16 05:33N 29°44' W 095°01'0 0.0
2015-May-16 04:33N 29°44' W 095°01'0 0.0
2015-May-16 03:33N 29°44' W 095°01'0 0.0
2015-May-16 02:33N 29°44' W 095°01'0 0.0
2015-May-16 01:33N 29°44' W 095°01'0 0.0
2015-May-16 00:33N 29°44' W 095°01'0 0.0
2015-May-15 23:33N 29°44' W 095°01'0 0.0
2015-May-15 22:33N 29°44' W 095°01'0 0.0
2015-May-15 21:33N 29°44' W 095°01'0 0.0
2015-May-15 20:33N 29°44' W 095°01'0 0.0
2015-May-15 19:33N 29°44' W 095°01'0 0.0
2015-May-15 18:32N 29°44' W 095°01'0 0.0
2015-May-15 17:33N 29°44' W 095°01'0 0.0
2015-May-15 16:33N 29°44' W 095°01'0 0.0
2015-May-15 15:33N 29°44' W 095°01'0 0.0
2015-May-15 14:33N 29°44' W 095°01'0 0.0
2015-May-15 13:33N 29°44' W 095°01'0 0.0
2015-May-15 12:33N 29°44' W 095°01'0 0.0
2015-May-15 11:33N 29°44' W 095°01'0 0.0
2015-May-15 10:33N 29°44' W 095°01'0 0.0
2015-May-15 09:33N 29°44' W 095°01'0 0.0
2015-May-15 08:33N 29°44' W 095°01'0 0.0
2015-May-15 07:33N 29°44' W 095°01'0 0.0
2015-May-15 06:33N 29°44' W 095°01'0 0.0
2015-May-15 05:33N 29°44' W 095°01'0 0.0
2015-May-15 04:33N 29°44' W 095°01'0 0.0
2015-May-15 03:33N 29°44' W 095°01'0 0.0
2015-May-15 02:33N 29°44' W 095°01'0 0.0
2015-May-15 01:33N 29°44' W 095°01'0 0.0
2015-May-15 00:33N 29°44' W 095°01'0 0.0
2015-May-14 23:33N 29°44' W 095°01'0 0.0
2015-May-14 22:33N 29°44' W 095°01'0 0.0
2015-May-14 21:33N 29°44' W 095°01'0 0.0
2015-May-14 20:33N 29°44' W 095°01'0 0.4
2015-May-14 19:33N 29°44' W 095°01'0 0.5
2015-May-14 18:34N 29°43' W 095°01'7 6.7
2015-May-14 17:33N 29°37' W 094°57'  
Track history (hours):
 
Tides and Currents Weather Stations Pressure Air Temp Water Temp Dewpoint Dewpoint Depression Visibility Wind Speed Wind Dir Waves Ship Positions

Mari Lampton

Owner: MAgnolia Marine Transport Company, Vicksburg, MS. More information available from US FCC via Universal Licensing System and Coast Guard Vessel Documentation Center.

Last reported at 2015-May-23 13:33 UTC. Time now 2015-May-30 18:37 UTC.
Position N 30°41' W 091°21'.

Length 34 m.

Type: Towing. MMSI: 367342210.

Date/timePositionNaut miles runAvg speedWind from/ knotsBaromVisibWave heightAir tempDewpointWater temp
2015-May-23 13:33N 30°41' W 091°21'4 4.5
2015-May-23 12:32N 30°38' W 091°18'3 3.3
2015-May-23 11:33N 30°34' W 091°17'3 3.1
2015-May-23 10:33N 30°32' W 091°15'1 1.2
2015-May-23 09:33N 30°31' W 091°15'1 0.5
2015-May-23 08:33N 30°31' W 091°14'1 1.0
2015-May-23 07:33N 30°31' W 091°13'5 4.8
2015-May-23 06:33N 30°27' W 091°12'1 0.8
2015-May-23 05:33N 30°26' W 091°12'1 0.9
2015-May-23 04:33N 30°26' W 091°13'0 0.1
2015-May-23 03:32N 30°26' W 091°13'0 0.3
2015-May-23 02:32N 30°26' W 091°14'4 3.2
2015-May-23 01:22N 30°25' W 091°18'  
2015-May-18 22:19N 29°29' W 094°52'6 7.6
2015-May-18 21:33N 29°34' W 094°55'7 7.1
2015-May-18 20:33N 29°40' W 094°59'4 3.7
2015-May-18 19:25N 29°44' W 095°01'0 0.0
2015-May-18 18:25N 29°44' W 095°01'0 0.2
2015-May-18 17:33N 29°44' W 095°01'0 0.0
2015-May-18 05:13N 29°44' W 095°01'0 0.0
2015-May-18 01:14N 29°44' W 095°01'0 0.1
2015-May-18 00:33N 29°44' W 095°01'0 0.1
2015-May-17 23:33N 29°44' W 095°01'0 0.0
2015-May-17 22:33N 29°44' W 095°01'0 0.0
2015-May-17 21:33N 29°44' W 095°01'0 0.0
2015-May-17 19:32N 29°44' W 095°01'0 0.1
2015-May-17 18:33N 29°44' W 095°01'0 0.0
2015-May-17 17:06N 29°44' W 095°01'0 0.0
2015-May-17 16:11N 29°44' W 095°01'0 0.0
2015-May-17 15:33N 29°44' W 095°01'0 0.0
2015-May-17 14:33N 29°44' W 095°01'0 0.0
2015-May-17 13:30N 29°44' W 095°01'0 0.0
2015-May-17 12:33N 29°44' W 095°01'0 0.0
2015-May-17 11:33N 29°44' W 095°01'0 0.0
2015-May-17 10:32N 29°44' W 095°01'0 0.0
2015-May-17 09:33N 29°44' W 095°01'0 0.0
2015-May-17 08:31N 29°44' W 095°01'0 0.0
2015-May-17 07:33N 29°44' W 095°01'0 0.0
2015-May-17 06:33N 29°44' W 095°01'0 0.1
2015-May-17 05:33N 29°44' W 095°01'0 0.1
2015-May-17 04:33N 29°44' W 095°01'0 0.0
2015-May-17 03:33N 29°44' W 095°01'0 0.0
2015-May-17 02:33N 29°44' W 095°01'0 0.1
2015-May-17 01:33N 29°44' W 095°01'0 0.0
2015-May-17 00:33N 29°44' W 095°01'0 0.1
2015-May-16 23:23N 29°44' W 095°01'0 0.0
2015-May-16 22:25N 29°44' W 095°01'0 0.0
2015-May-16 21:32N 29°44' W 095°01'0 0.0
2015-May-16 19:32N 29°44' W 095°01'0 0.0
2015-May-16 18:33N 29°44' W 095°01'0 0.1
2015-May-16 17:32N 29°44' W 095°01'0 0.1
2015-May-16 16:32N 29°44' W 095°01'0 0.0
2015-May-16 15:30N 29°44' W 095°01'0 0.0
2015-May-16 14:33N 29°44' W 095°01'0 0.0
2015-May-16 13:33N 29°44' W 095°01'0 0.0
2015-May-16 12:33N 29°44' W 095°01'0 0.0
2015-May-16 11:33N 29°44' W 095°01'0 0.0
2015-May-16 10:33N 29°44' W 095°01'0 0.0
2015-May-16 09:33N 29°44' W 095°01'0 0.0
2015-May-16 08:33N 29°44' W 095°01'0 0.0
2015-May-16 07:33N 29°44' W 095°01'0 0.0
2015-May-16 06:32N 29°44' W 095°01'0 0.0
2015-May-16 05:33N 29°44' W 095°01'0 0.0
2015-May-16 04:33N 29°44' W 095°01'0 0.0
2015-May-16 03:33N 29°44' W 095°01'0 0.0
2015-May-16 02:33N 29°44' W 095°01'0 0.0
2015-May-16 01:33N 29°44' W 095°01'0 0.0
2015-May-16 00:33N 29°44' W 095°01'0 0.0
2015-May-15 23:33N 29°44' W 095°01'0 0.0
2015-May-15 22:33N 29°44' W 095°01'0 0.0
2015-May-15 21:33N 29°44' W 095°01'0 0.0
2015-May-15 20:33N 29°44' W 095°01'0 0.0
2015-May-15 19:33N 29°44' W 095°01'0 0.0
2015-May-15 18:32N 29°44' W 095°01'0 0.0
2015-May-15 17:33N 29°44' W 095°01'0 0.0
2015-May-15 16:33N 29°44' W 095°01'0 0.0
2015-May-15 15:33N 29°44' W 095°01'0 0.0
2015-May-15 14:33N 29°44' W 095°01'0 0.0
2015-May-15 13:33N 29°44' W 095°01'0 0.0
2015-May-15 12:33N 29°44' W 095°01'0 0.0
2015-May-15 11:33N 29°44' W 095°01'0 0.0
2015-May-15 10:33N 29°44' W 095°01'0 0.0
2015-May-15 09:33N 29°44' W 095°01'0 0.0
2015-May-15 08:33N 29°44' W 095°01'0 0.0
2015-May-15 07:33N 29°44' W 095°01'0 0.0
2015-May-15 06:33N 29°44' W 095°01'0 0.0
2015-May-15 05:33N 29°44' W 095°01'0 0.0
2015-May-15 04:33N 29°44' W 095°01'0 0.0
2015-May-15 03:33N 29°44' W 095°01'0 0.0
2015-May-15 02:33N 29°44' W 095°01'0 0.0
2015-May-15 01:33N 29°44' W 095°01'0 0.0
2015-May-15 00:33N 29°44' W 095°01'0 0.0
2015-May-14 23:33N 29°44' W 095°01'0 0.0
2015-May-14 22:33N 29°44' W 095°01'0 0.0
2015-May-14 21:33N 29°44' W 095°01'0 0.0
2015-May-14 20:33N 29°44' W 095°01'0 0.4
2015-May-14 19:33N 29°44' W 095°01'0 0.5
2015-May-14 18:34N 29°43' W 095°01'7 6.7
2015-May-14 17:33N 29°37' W 094°57'  

Dump ship's entire track history